Time;durP1;ratioP1;P1;durP2;ratioP2;P2;SDS_P1;SDS_P2;PMS_P1;PMS_P2;Temp;Humidity;BMP_temperature;BMP_pressure;BME280_temperature;BME280_humidity;BME280_pressure;Samples;Min_cycle;Max_cycle;Signal;HPM_P1;HPM_P2
2022/10/07 00:02:13;;;;;;;15.25;2.20;;;;;;;9.02;100.00;100469.34;5174505;27;20046;-51
2022/10/07 00:04:45;;;;;;;17.60;1.98;;;;;;;9.19;100.00;100464.63;5174721;27;20095;-48
2022/10/07 00:07:11;;;;;;;10.55;1.55;;;;;;;8.91;100.00;100468.84;5174522;27;20501;-49
2022/10/07 00:09:38;;;;;;;16.38;2.63;;;;;;;9.22;100.00;100446.78;5174602;27;20050;-49
2022/10/07 00:12:05;;;;;;;17.33;1.95;;;;;;;9.07;100.00;100455.50;5174752;27;20046;-50
2022/10/07 00:14:31;;;;;;;10.73;1.95;;;;;;;9.18;100.00;100454.03;5174415;27;20098;-53
2022/10/07 00:16:58;;;;;;;8.52;2.00;;;;;;;9.36;100.00;100466.56;5174658;27;20042;-49
2022/10/07 00:19:25;;;;;;;11.77;1.85;;;;;;;8.86;100.00;100491.72;5174375;27;20050;-52
2022/10/07 00:21:51;;;;;;;14.45;1.95;;;;;;;9.36;100.00;100469.31;5174567;27;20489;-51
2022/10/07 00:24:17;;;;;;;13.70;1.95;;;;;;;9.28;100.00;100488.47;5174392;27;20048;-52
2022/10/07 00:26:43;;;;;;;8.07;1.77;;;;;;;9.18;100.00;100468.50;5174248;27;20052;-50
2022/10/07 00:29:09;;;;;;;6.93;1.83;;;;;;;9.26;100.00;100469.63;5174146;27;20050;-49
2022/10/07 00:31:36;;;;;;;10.52;2.08;;;;;;;9.24;100.00;100466.44;5174157;27;20417;-48
2022/10/07 00:34:04;;;;;;;8.43;1.85;;;;;;;9.10;100.00;100476.75;5173431;27;20157;-51
2022/10/07 00:36:34;;;;;;;8.25;1.88;;;;;;;8.95;100.00;100472.56;5174232;27;20052;-51
2022/10/07 00:39:02;;;;;;;16.48;2.65;;;;;;;9.06;100.00;100456.59;5174423;27;20046;-51
2022/10/07 00:41:31;;;;;;;10.73;2.28;;;;;;;8.89;100.00;100443.75;5174080;27;20480;-52
2022/10/07 00:43:58;;;;;;;15.02;1.92;;;;;;;9.12;100.00;100436.97;5174392;27;20524;-49
2022/10/07 00:46:32;;;;;;;9.70;2.25;;;;;;;8.75;100.00;100432.19;5173834;27;20084;-50
2022/10/07 00:49:02;;;;;;;13.05;2.15;;;;;;;8.94;100.00;100408.03;5174033;27;20046;-51
2022/10/07 00:51:30;;;;;;;17.65;2.40;;;;;;;8.99;100.00;100409.78;5173930;27;20497;-51
2022/10/07 00:53:57;;;;;;;4.13;1.63;;;;;;;9.09;100.00;100414.94;5173843;27;20459;-48
2022/10/07 00:56:26;;;;;;;14.32;2.33;;;;;;;8.80;100.00;100402.75;5173760;27;20077;-50
2022/10/07 00:58:53;;;;;;;12.48;3.00;;;;;;;9.13;100.00;100405.78;5173631;27;20093;-51
2022/10/07 01:01:20;;;;;;;16.80;2.30;;;;;;;9.05;100.00;100424.91;5173877;27;20432;-49
2022/10/07 01:03:47;;;;;;;16.10;1.52;;;;;;;8.68;100.00;100427.19;5173658;27;20098;-52
2022/10/07 01:06:14;;;;;;;12.30;1.95;;;;;;;8.92;100.00;100397.41;5173624;27;20075;-50
2022/10/07 01:08:41;;;;;;;15.38;2.38;;;;;;;8.89;100.00;100410.94;5173344;27;20070;-48
2022/10/07 01:11:18;;;;;;;10.25;1.80;;;;;;;8.88;100.00;100412.88;5173995;27;20098;-52
2022/10/07 01:13:54;;;;;;;18.88;2.90;;;;;;;8.71;100.00;100424.63;5173400;27;20049;-49
2022/10/07 01:16:32;;;;;;;10.45;2.03;;;;;;;8.99;100.00;100431.69;5173328;27;20046;-50
2022/10/07 01:19:08;;;;;;;8.40;1.75;;;;;;;8.57;100.00;100459.50;5173535;27;20095;-52
2022/10/07 01:21:43;;;;;;;8.80;2.65;;;;;;;8.82;100.00;100443.44;5173405;27;20054;-49
2022/10/07 01:24:23;;;;;;;5.93;1.70;;;;;;;8.89;100.00;100433.59;5173557;27;20054;-48
2022/10/07 01:27:00;;;;;;;7.60;1.75;;;;;;;8.52;100.00;100436.97;5173180;27;20054;-48
2022/10/07 01:29:30;;;;;;;15.25;2.08;;;;;;;8.60;100.00;100415.13;5173298;27;20050;-48
2022/10/07 01:32:02;;;;;;;16.88;2.42;;;;;;;8.61;100.00;100407.72;5173149;27;20500;-49
2022/10/07 01:34:29;;;;;;;16.02;2.63;;;;;;;8.74;100.00;100390.38;5173508;27;20096;-48
2022/10/07 01:36:58;;;;;;;29.48;3.22;;;;;;;8.45;100.00;100378.13;5173441;27;20049;-49
2022/10/07 01:39:29;;;;;;;9.55;2.22;;;;;;;8.65;100.00;100373.16;5173230;27;20184;-49
2022/10/07 01:41:57;;;;;;;11.75;2.13;;;;;;;8.74;100.00;100379.44;5173265;27;20504;-48
2022/10/07 01:44:25;;;;;;;6.72;2.20;;;;;;;8.70;100.00;100395.69;5173132;27;20061;-49
2022/10/07 01:46:51;;;;;;;13.23;2.60;;;;;;;8.24;100.00;100421.63;5172029;27;20046;-49
2022/10/07 01:49:17;;;;;;;14.65;2.20;;;;;;;8.48;100.00;100382.97;5172907;27;20046;-52
2022/10/07 01:51:51;;;;;;;9.52;1.75;;;;;;;8.67;100.00;100373.66;5172969;27;20424;-49
2022/10/07 01:54:32;;;;;;;11.77;2.38;;;;;;;8.53;100.00;100371.09;5172911;27;20103;-48
2022/10/07 01:57:09;;;;;;;15.50;2.47;;;;;;;8.66;100.00;100380.22;5173032;27;20072;-48
2022/10/07 01:59:59;;;;;;;19.85;2.80;;;;;;;8.52;100.00;100382.31;5172772;27;20064;-49
2022/10/07 02:02:46;;;;;;;16.90;2.60;;;;;;;8.58;100.00;100370.91;5172547;27;20140;-48
2022/10/07 02:05:19;;;;;;;9.75;2.05;;;;;;;8.44;100.00;100386.66;5173031;27;20050;-48
2022/10/07 02:07:56;;;;;;;7.90;2.00;;;;;;;8.44;100.00;100376.53;5172869;27;20560;-49
2022/10/07 02:10:29;;;;;;;13.98;1.98;;;;;;;8.45;100.00;100386.34;5172644;27;20509;-52
2022/10/07 02:13:03;;;;;;;8.88;2.42;;;;;;;8.29;100.00;100367.97;5172641;27;20488;-51
2022/10/07 02:15:35;;;;;;;29.08;3.15;;;;;;;8.55;100.00;100362.53;5172521;27;20050;-51
2022/10/07 02:18:05;;;;;;;7.43;2.55;;;;;;;8.54;100.00;100369.16;5172531;27;20050;-48
2022/10/07 02:20:35;;;;;;;14.20;2.45;;;;;;;8.48;100.00;100363.81;5172577;27;20489;-49
2022/10/07 02:23:05;;;;;;;14.45;2.10;;;;;;;8.29;100.00;100363.28;5172586;27;20057;-52
2022/10/07 02:25:37;;;;;;;6.50;2.08;;;;;;;8.43;100.00;100354.97;5172175;27;20046;-48
2022/10/07 02:28:05;;;;;;;6.57;1.73;;;;;;;8.48;100.00;100363.81;5172896;27;20050;-49
2022/10/07 02:30:33;;;;;;;9.63;2.10;;;;;;;8.40;100.00;100366.56;5172211;27;20561;-50
2022/10/07 02:33:04;;;;;;;9.65;2.08;;;;;;;8.20;100.00;100366.03;5172211;27;20584;-50
2022/10/07 02:35:36;;;;;;;9.75;2.40;;;;;;;8.10;100.00;100347.22;5172637;27;20551;-49
2022/10/07 02:38:07;;;;;;;15.40;2.95;;;;;;;8.34;100.00;100340.50;5172189;27;20053;-50
2022/10/07 02:40:38;;;;;;;13.23;2.22;;;;;;;7.88;100.00;100342.69;5172459;27;20508;-49
2022/10/07 02:43:11;;;;;;;13.43;3.03;;;;;;;8.15;100.00;100327.13;5172037;27;20054;-50
2022/10/07 02:45:42;;;;;;;14.85;2.85;;;;;;;8.25;100.00;100324.09;5172357;27;20443;-50
2022/10/07 02:48:17;;;;;;;15.45;2.97;;;;;;;8.08;100.00;100333.06;5172038;27;20054;-48
2022/10/07 02:50:46;;;;;;;;;;;;;;;8.18;100.00;100324.56;5172506;27;20054;-48
2022/10/07 02:53:14;;;;;;;10.90;2.47;;;;;;;8.20;100.00;100322.34;5171995;27;19948;-48
2022/10/07 02:55:42;;;;;;;11.32;2.25;;;;;;;7.89;100.00;100318.91;5172304;27;20052;-49
2022/10/07 02:58:12;;;;;;;13.70;3.25;;;;;;;8.05;100.00;100300.94;5174432;27;20172;-50
2022/10/07 03:00:44;;;;;;;7.95;2.33;;;;;;;7.86;100.00;100308.63;5175797;27;20057;-49
2022/10/07 03:03:10;;;;;;;10.90;2.38;;;;;;;7.89;100.00;100305.25;5176089;27;20046;-48
2022/10/07 03:05:36;;;;;;;12.68;2.53;;;;;;;7.97;100.00;100293.56;5175502;27;20046;-51
2022/10/07 03:08:06;;;;;;;9.43;2.10;;;;;;;7.91;100.00;100300.28;5175827;27;20050;-51
2022/10/07 03:10:33;;;;;;;20.52;2.85;;;;;;;7.98;100.00;100279.56;5175377;27;20054;-49
2022/10/07 03:13:00;;;;;;;15.00;2.85;;;;;;;7.68;100.00;100277.75;5175327;27;20054;-48
2022/10/07 03:15:27;;;;;;;13.57;3.17;;;;;;;7.84;100.00;100278.13;5175363;27;20050;-49
2022/10/07 03:17:53;;;;;;;14.32;2.53;;;;;;;7.72;100.00;100271.34;5175776;27;20058;-48
2022/10/07 03:20:19;;;;;;;14.27;3.10;;;;;;;7.76;100.00;100277.78;5175483;27;20050;-48
2022/10/07 03:22:46;;;;;;;15.55;2.83;;;;;;;7.69;100.00;100271.16;5175496;27;20072;-48
2022/10/07 03:25:12;;;;;;;15.13;2.35;;;;;;;7.83;100.00;100273.75;5175226;27;20102;-49
2022/10/07 03:27:41;;;;;;;10.23;2.85;;;;;;;7.61;100.00;100282.88;5175334;27;20049;-48
2022/10/07 03:30:09;;;;;;;11.52;2.97;;;;;;;7.45;100.00;100268.88;5175593;27;20046;-48
2022/10/07 03:32:38;;;;;;;9.32;2.83;;;;;;;7.57;100.00;100255.44;5174993;27;20050;-48
2022/10/07 03:35:04;;;;;;;12.77;2.33;;;;;;;7.65;100.00;100249.19;5175491;27;20047;-48
2022/10/07 03:37:31;;;;;;;18.83;2.75;;;;;;;7.71;100.00;100253.38;5174872;27;20046;-48
2022/10/07 03:39:57;;;;;;;11.32;2.45;;;;;;;7.80;100.00;100250.66;5175190;27;20046;-48
2022/10/07 03:42:23;;;;;;;10.40;2.65;;;;;;;7.92;100.00;100260.94;5174845;27;20417;-49
2022/10/07 03:44:49;;;;;;;16.33;2.88;;;;;;;7.81;100.00;100265.91;5174996;27;20042;-48
2022/10/07 03:47:16;;;;;;;12.55;2.53;;;;;;;7.85;100.00;100274.25;5174996;27;20406;-48
2022/10/07 03:49:43;;;;;;;15.60;3.55;;;;;;;7.91;100.00;100268.31;5174884;27;20050;-48
2022/10/07 03:52:09;;;;;;;16.63;2.47;;;;;;;7.88;100.00;100270.88;5175026;27;20072;-48
2022/10/07 03:54:35;;;;;;;14.27;2.80;;;;;;;7.72;100.00;100265.88;5174715;27;20455;-50
2022/10/07 03:57:02;;;;;;;14.57;2.85;;;;;;;7.69;100.00;100260.25;5175136;27;20497;-49
2022/10/07 03:59:28;;;;;;;11.52;2.60;;;;;;;7.84;100.00;100248.09;5175065;27;20072;-48
2022/10/07 04:01:54;;;;;;;18.73;2.78;;;;;;;7.61;100.00;100253.66;5174987;27;20042;-50
2022/10/07 04:04:20;;;;;;;11.50;2.50;;;;;;;7.55;100.00;100244.03;5174462;27;20054;-49
2022/10/07 04:06:47;;;;;;;15.25;2.50;;;;;;;7.69;100.00;100235.69;5174826;27;20050;-50
2022/10/07 04:09:14;;;;;;;13.68;2.63;;;;;;;7.79;100.00;100233.44;5173505;27;20082;-48
2022/10/07 04:11:40;;;;;;;13.95;2.90;;;;;;;7.87;100.00;100239.25;5174681;27;20406;-50
2022/10/07 04:14:07;;;;;;;9.35;2.88;;;;;;;7.69;100.00;100233.75;5174449;27;20421;-50
2022/10/07 04:16:33;;;;;;;19.35;3.58;;;;;;;7.92;100.00;100225.44;5174711;27;20046;-49
2022/10/07 04:19:00;;;;;;;13.50;3.28;;;;;;;7.86;100.00;100240.38;5174819;27;20057;-48
2022/10/07 04:21:26;;;;;;;16.85;3.22;;;;;;;7.83;100.00;100241.84;5174799;27;20588;-49
2022/10/07 04:23:53;;;;;;;19.90;3.00;;;;;;;7.55;100.00;100233.09;5174729;27;20105;-49
2022/10/07 04:26:19;;;;;;;14.75;3.30;;;;;;;7.61;100.00;100229.09;5174187;27;20046;-49
2022/10/07 04:28:45;;;;;;;19.05;3.55;;;;;;;7.93;100.00;100219.66;5174458;27;20046;-49
2022/10/07 04:31:11;;;;;;;24.17;3.33;;;;;;;7.81;100.00;100232.34;5174203;27;20042;-49
2022/10/07 04:33:38;;;;;;;8.80;2.85;;;;;;;7.87;100.00;100225.63;5174416;27;20046;-48
2022/10/07 04:36:08;;;;;;;17.88;3.28;;;;;;;7.65;100.00;100227.34;5174023;27;20042;-49
2022/10/07 04:38:34;;;;;;;17.65;2.95;;;;;;;7.59;100.00;100223.16;5174203;27;20054;-50
2022/10/07 04:41:04;;;;;;;17.38;3.55;;;;;;;7.94;100.00;100226.72;5173990;27;20060;-48
2022/10/07 04:43:32;;;;;;;21.00;3.10;;;;;;;7.91;100.00;100229.28;5174091;27;20092;-49
2022/10/07 04:46:03;;;;;;;16.08;4.20;;;;;;;8.08;100.00;100221.09;5174118;27;20072;-50
2022/10/07 04:48:30;;;;;;;17.67;3.08;;;;;;;8.23;100.00;100230.72;5173847;27;20069;-49
2022/10/07 04:51:01;;;;;;;13.18;2.95;;;;;;;8.42;100.00;100244.88;5173809;27;20057;-49
2022/10/07 04:53:27;;;;;;;23.05;3.67;;;;;;;8.40;100.00;100249.06;5173622;27;20042;-52
2022/10/07 04:55:53;;;;;;;11.98;3.55;;;;;;;8.24;100.00;100265.13;5173952;27;20374;-50
2022/10/07 04:58:20;;;;;;;11.45;2.80;;;;;;;8.49;100.00;100266.25;5173699;27;20116;-51
2022/10/07 05:00:47;;;;;;;16.60;3.03;;;;;;;8.64;100.00;100273.94;5173930;27;20405;-48
2022/10/07 05:03:15;;;;;;;22.70;3.72;;;;;;;8.93;100.00;100286.09;5173489;27;20112;-49
2022/10/07 05:05:43;;;;;;;15.88;3.92;;;;;;;8.97;100.00;100308.13;5173610;27;20122;-48
2022/10/07 05:08:09;;;;;;;24.75;4.00;;;;;;;9.11;100.00;100323.22;5173634;27;20050;-50
2022/10/07 05:10:36;;;;;;;15.43;3.22;;;;;;;9.15;100.00;100329.63;5173381;27;20050;-49
2022/10/07 05:13:03;;;;;;;25.75;4.30;;;;;;;9.31;100.00;100359.19;5173066;27;20064;-51
2022/10/07 05:15:30;;;;;;;12.85;3.25;;;;;;;9.19;100.00;100385.28;5173526;27;20053;-50
2022/10/07 05:17:56;;;;;;;13.93;3.63;;;;;;;9.48;100.00;100388.44;5173380;27;20057;-47
2022/10/07 05:20:22;;;;;;;8.43;2.30;;;;;;;9.54;100.00;100422.72;5172992;27;20054;-50
2022/10/07 05:22:48;;;;;;;11.00;3.20;;;;;;;9.40;100.00;100461.25;5173688;27;20046;-48
2022/10/07 05:25:16;;;;;;;9.95;2.88;;;;;;;9.64;100.00;100457.97;5173177;27;20066;-51
2022/10/07 05:27:42;;;;;;;7.75;2.40;;;;;;;9.73;100.00;100480.66;5173452;27;20046;-48
2022/10/07 05:30:10;;;;;;;16.73;3.33;;;;;;;9.85;100.00;100499.13;5173132;27;20413;-51
2022/10/07 05:32:37;;;;;;;14.95;2.58;;;;;;;10.03;100.00;100522.59;5172894;27;20054;-51
2022/10/07 05:35:03;;;;;;;13.60;3.55;;;;;;;9.50;100.00;100562.19;5173199;27;20042;-52
2022/10/07 05:37:31;;;;;;;13.73;3.67;;;;;;;9.92;100.00;100550.66;5172809;27;20137;-48
2022/10/07 05:39:57;;;;;;;14.40;3.67;;;;;;;9.97;100.00;100581.44;5173234;27;20502;-48
2022/10/07 05:42:23;;;;;;;13.43;3.50;;;;;;;9.93;100.00;100609.78;5172748;27;20053;-49
2022/10/07 05:44:49;;;;;;;12.70;2.90;;;;;;;10.07;100.00;100608.50;5172977;27;20519;-48
2022/10/07 05:47:17;;;;;;;15.88;4.05;;;;;;;9.89;100.00;100637.84;5172729;27;20046;-48
2022/10/07 05:49:44;;;;;;;17.23;3.80;;;;;;;10.18;100.00;100632.81;5173096;27;20056;-48
2022/10/07 05:52:10;;;;;;;9.60;3.53;;;;;;;10.12;100.00;100659.56;5172750;27;20046;-49
2022/10/07 05:54:36;;;;;;;24.77;4.07;;;;;;;10.11;100.00;100664.25;5172863;27;20540;-51
2022/10/07 05:57:02;;;;;;;20.75;3.33;;;;;;;10.40;100.00;100673.75;5172410;27;20050;-55
2022/10/07 05:59:29;;;;;;;9.52;2.60;;;;;;;10.53;100.00;100691.09;5172683;27;20050;-50
2022/10/07 06:01:58;;;;;;;7.88;2.55;;;;;;;11.04;100.00;100701.09;5172699;27;20137;-59
2022/10/07 06:04:26;;;;;;;17.83;3.47;;;;;;;11.53;100.00;100728.13;5172533;27;20064;-59
2022/10/07 06:06:53;;;;;;;17.65;2.92;;;;;;;12.19;100.00;100746.69;5172580;27;20046;-65
2022/10/07 06:14:47;;;;;;;10.23;2.97;;;;;;;13.09;100.00;100472.50;5172472;27;20580;-59
2022/10/07 06:17:14;;;;;;;10.75;3.95;;;;;;;13.02;100.00;100411.75;5172823;27;20046;-59
2022/10/07 06:19:40;;;;;;;13.13;3.28;;;;;;;12.88;100.00;100385.44;5172688;27;20078;-64
2022/10/07 06:22:07;;;;;;;20.23;4.65;;;;;;;12.76;100.00;100431.47;5172236;27;20042;-60
2022/10/07 06:24:34;;;;;;;16.85;3.30;;;;;;;12.69;100.00;100437.53;5172530;27;20057;-66
2022/10/07 06:27:00;;;;;;;13.48;2.85;;;;;;;12.89;100.00;100485.31;5172254;27;20046;-64
2022/10/07 06:29:27;;;;;;;13.60;3.40;;;;;;;13.72;100.00;100441.59;5172460;27;20049;-59
2022/10/07 06:31:53;;;;;;;13.10;4.45;;;;;;;14.86;100.00;100203.25;5171339;27;20057;-66
2022/10/07 06:34:19;;;;;;;13.55;2.63;;;;;;;15.60;100.00;99778.03;5172308;27;20057;-66
2022/10/07 06:36:46;;;;;;;9.50;3.10;;;;;;;16.38;100.00;99465.03;5172157;27;20492;-66
2022/10/07 06:39:13;;;;;;;25.38;8.15;;;;;;;16.89;100.00;99343.91;5172220;27;20122;-66
2022/10/07 06:41:39;;;;;;;10.20;3.20;;;;;;;17.29;100.00;99308.44;5171937;27;20397;-66
2022/10/07 06:44:05;;;;;;;14.07;3.38;;;;;;;17.83;100.00;99309.63;5172445;27;20129;-64
2022/10/07 06:46:31;;;;;;;13.38;4.30;;;;;;;18.41;100.00;99345.13;5171819;27;20050;-64
2022/10/07 06:48:58;;;;;;;14.48;3.15;;;;;;;18.32;100.00;99371.38;5171909;27;20046;-67
2022/10/07 06:51:24;;;;;;;22.90;3.63;;;;;;;18.48;100.00;99365.25;5172000;27;20054;-68
2022/10/07 06:53:52;;;;;;;12.32;4.20;;;;;;;18.40;100.00;99372.09;5171795;27;20102;-68
2022/10/07 06:56:19;;;;;;;14.23;3.30;;;;;;;18.43;100.00;99435.13;5172124;27;20413;-68
2022/10/07 06:58:45;;;;;;;15.85;3.75;;;;;;;17.80;100.00;99390.88;5171577;27;20500;-64
2022/10/07 07:01:12;;;;;;;14.98;3.10;;;;;;;17.39;100.00;99372.13;5172150;27;20095;-68
2022/10/07 07:03:38;;;;;;;19.48;3.60;;;;;;;17.61;100.00;99358.13;5171629;27;20501;-66
2022/10/07 07:06:07;;;;;;;9.82;2.63;;;;;;;17.65;100.00;99362.44;5171886;27;20050;-66
2022/10/07 07:08:34;;;;;;;12.90;3.13;;;;;;;17.30;100.00;99344.09;5171566;27;20569;-61
2022/10/07 07:11:02;;;;;;;10.10;2.47;;;;;;;17.36;100.00;99349.97;5172070;27;20053;-67
2022/10/07 07:13:29;;;;;;;9.73;2.85;;;;;;;18.07;100.00;99373.63;5171969;27;20047;-67
2022/10/07 07:15:56;;;;;;;9.13;2.40;;;;;;;18.37;100.00;99383.25;5171491;27;20046;-68
2022/10/07 07:18:23;;;;;;;9.25;2.05;;;;;;;18.54;100.00;99443.34;5171867;27;20046;-68
2022/10/07 07:20:50;;;;;;;17.23;3.25;;;;;;;19.20;100.00;99483.91;5171595;27;20053;-65
2022/10/07 07:23:16;;;;;;;15.25;2.80;;;;;;;19.25;100.00;99517.56;5171789;27;20134;-66
2022/10/07 07:25:44;;;;;;;10.52;2.63;;;;;;;19.39;100.00;99524.19;5171333;27;20047;-67
2022/10/07 07:28:13;;;;;;;9.90;2.50;;;;;;;19.51;100.00;99551.44;5171674;27;20054;-67
2022/10/07 07:30:41;;;;;;;12.52;3.90;;;;;;;19.55;100.00;99574.44;5171020;27;20564;-69
2022/10/07 07:33:07;;;;;;;20.88;4.90;;;;;;;19.72;100.00;99583.78;5171462;27;20090;-66
2022/10/07 07:35:37;;;;;;;11.65;2.75;;;;;;;18.92;100.00;99576.69;5171205;27;20480;-67
2022/10/07 07:38:03;;;;;;;14.48;2.50;;;;;;;19.54;100.00;99556.16;5171350;27;20643;-67
2022/10/07 07:40:29;;;;;;;9.73;2.97;;;;;;;19.19;100.00;99574.03;5171053;27;20094;-63
2022/10/07 07:42:56;;;;;;;12.77;2.85;;;;;;;18.73;100.00;99550.31;5171492;27;20107;-67
2022/10/07 07:45:23;;;;;;;14.23;2.75;;;;;;;18.77;100.00;99545.50;5174764;27;20493;-66
2022/10/07 07:47:50;;;;;;;9.57;2.55;;;;;;;18.58;100.00;99525.38;5174945;27;20072;-66
2022/10/07 07:50:19;;;;;;;12.55;3.20;;;;;;;19.16;100.00;99572.09;5174790;27;20050;-66
2022/10/07 07:52:46;;;;;;;7.35;2.92;;;;;;;19.63;100.00;99555.69;5174502;27;20120;-67
2022/10/07 07:55:13;;;;;;;11.75;2.97;;;;;;;18.99;100.00;99629.41;5174586;27;20497;-66
2022/10/07 07:57:39;;;;;;;19.98;2.90;;;;;;;20.21;100.00;99635.22;5174700;27;20112;-66
2022/10/07 08:00:07;;;;;;;10.45;2.50;;;;;;;20.33;100.00;99655.34;5174450;27;20191;-67
2022/10/07 08:02:33;;;;;;;16.52;2.70;;;;;;;20.76;100.00;99702.09;5174542;27;20046;-67
2022/10/07 08:05:00;;;;;;;9.27;2.38;;;;;;;20.18;100.00;99680.59;5174389;27;20061;-64
2022/10/07 08:07:26;;;;;;;10.35;2.55;;;;;;;20.74;100.00;99710.09;5174388;27;20394;-68
2022/10/07 08:09:53;;;;;;;9.32;3.03;;;;;;;20.33;100.00;99728.53;5174184;27;20046;-69
2022/10/07 08:12:20;;;;;;;12.90;3.67;;;;;;;20.31;100.00;99713.44;5174379;27;20067;-69
2022/10/07 08:14:47;;;;;;;13.55;4.47;;;;;;;20.57;100.00;99701.56;5174190;27;20050;-69
2022/10/07 08:17:13;;;;;;;10.18;2.85;;;;;;;20.43;100.00;99699.75;5174349;27;20046;-69
2022/10/07 08:19:39;;;;;;;6.85;2.28;;;;;;;20.40;100.00;99703.38;5174307;27;20050;-69
2022/10/07 08:22:06;;;;;;;15.77;2.67;;;;;;;20.61;100.00;99698.75;5174037;27;20046;-69
2022/10/07 08:24:32;;;;;;;9.00;2.33;;;;;;;20.96;100.00;99727.25;5174161;27;20115;-69
2022/10/07 08:26:58;;;;;;;16.73;4.38;;;;;;;20.97;100.00;99738.00;5174264;27;20050;-69
2022/10/07 08:29:25;;;;;;;13.63;3.72;;;;;;;21.07;100.00;99756.56;5174145;27;20114;-69
2022/10/07 08:31:51;;;;;;;14.23;3.80;;;;;;;21.41;100.00;99791.91;5174054;27;20077;-69
2022/10/07 08:34:17;;;;;;;12.45;3.60;;;;;;;21.30;100.00;99783.69;5173952;27;20401;-69
2022/10/07 08:36:46;;;;;;;12.35;4.10;;;;;;;20.53;100.00;99725.91;5173786;27;20042;-69
2022/10/07 08:39:13;;;;;;;7.85;2.38;;;;;;;20.40;100.00;99700.59;5173953;27;20433;-69
2022/10/07 08:41:52;;;;;;;12.63;2.55;;;;;;;19.54;100.00;99634.03;5174073;27;20128;-69
2022/10/07 08:44:25;;;;;;;11.88;2.53;;;;;;;19.33;100.00;99620.38;5174174;27;20054;-69
2022/10/07 08:47:05;;;;;;;15.20;3.90;;;;;;;20.02;100.00;99627.50;5174058;27;20053;-69
2022/10/07 08:49:36;;;;;;;8.10;2.28;;;;;;;19.15;100.00;99643.56;5173838;27;20077;-69
2022/10/07 08:52:15;;;;;;;8.75;2.42;;;;;;;20.25;100.00;99665.00;5173852;27;20050;-69
2022/10/07 08:54:42;;;;;;;6.28;2.10;;;;;;;20.37;100.00;99711.78;5173178;27;20096;-69
2022/10/07 08:57:19;;;;;;;9.98;2.63;;;;;;;19.87;100.00;99667.88;5173518;27;20052;-69
2022/10/07 08:59:51;;;;;;;13.07;2.80;;;;;;;19.90;100.00;99659.47;5173570;27;20141;-69
2022/10/07 09:02:27;;;;;;;7.75;2.28;;;;;;;20.36;100.00;99712.97;5173542;27;20057;-69
2022/10/07 09:05:05;;;;;;;11.63;2.45;;;;;;;20.77;100.00;99720.41;5173645;27;20049;-69
2022/10/07 09:07:34;;;;;;;8.00;2.25;;;;;;;21.57;100.00;99757.78;5173530;27;20053;-69
2022/10/07 09:10:14;;;;;;;7.72;2.92;;;;;;;21.75;100.00;99774.19;5173726;27;20050;-69
2022/10/07 09:12:46;;;;;;;14.00;2.30;;;;;;;21.90;100.00;99775.53;5173438;27;20046;-69
2022/10/07 09:15:19;;;;;;;9.18;2.45;;;;;;;21.78;100.00;99806.84;5173352;27;20056;-69
2022/10/07 09:17:53;;;;;;;10.98;3.67;;;;;;;22.88;100.00;99856.22;5173306;27;20050;-69
2022/10/07 09:20:25;;;;;;;14.93;3.90;;;;;;;22.52;100.00;99868.91;5173463;27;20050;-69
2022/10/07 09:22:56;;;;;;;9.05;2.78;;;;;;;22.08;100.00;99842.97;5173221;27;20046;-69
2022/10/07 09:25:25;;;;;;;17.10;3.25;;;;;;;22.07;100.00;99858.16;5173081;27;20058;-69
2022/10/07 09:27:53;;;;;;;12.90;4.53;;;;;;;21.05;100.00;99811.94;5173276;27;20113;-69
2022/10/07 09:30:20;;;;;;;9.50;4.30;;;;;;;21.18;100.00;99830.88;5173157;27;20102;-69
2022/10/07 09:32:48;;;;;;;13.63;4.63;;;;;;;21.07;100.00;99831.84;5173397;27;20584;-69
2022/10/07 09:35:17;;;;;;;15.38;3.90;;;;;;;20.52;100.00;99777.22;5173041;27;20050;-69
2022/10/07 09:37:59;;;;;;;13.25;3.22;;;;;;;21.07;100.00;99812.31;5173093;27;20568;-69
2022/10/07 09:41:13;;;;;;;9.93;3.13;;;;;;;20.28;100.00;99818.06;5173049;27;20046;-69
2022/10/07 09:43:23;;;;;;;10.65;2.50;;;;;;;20.48;100.00;99775.69;5172853;27;20053;-69
2022/10/07 09:45:50;;;;;;;10.05;1.98;;;;;;;20.90;100.00;99816.16;5173041;27;20050;-69
2022/10/07 09:48:20;;;;;;;13.45;3.67;;;;;;;21.19;100.00;99812.94;5172858;27;20061;-69
2022/10/07 09:50:46;;;;;;;7.43;1.98;;;;;;;21.02;100.00;99807.19;5173004;27;20053;-69
2022/10/07 09:53:18;;;;;;;10.82;2.40;;;;;;;20.87;100.00;99806.63;5172700;27;20042;-70
2022/10/07 09:55:45;;;;;;;8.43;1.95;;;;;;;21.44;100.00;99821.75;5172665;27;20046;-69
2022/10/07 09:58:20;;;;;;;8.32;2.17;;;;;;;21.18;100.00;99850.41;5172775;27;20428;-69
2022/10/07 10:00:48;;;;;;;14.85;3.00;;;;;;;21.45;100.00;99845.63;5172878;27;20046;-69
2022/10/07 10:03:16;;;;;;;12.43;3.90;;;;;;;21.33;100.00;99844.19;5172791;27;20046;-69
2022/10/07 10:05:52;;;;;;;12.27;3.40;;;;;;;21.19;100.00;99851.97;5172614;27;20099;-69
2022/10/07 10:08:24;;;;;;;11.40;2.67;;;;;;;20.89;100.00;99795.88;5171744;27;20118;-69
2022/10/07 10:10:53;;;;;;;11.20;3.60;;;;;;;21.10;100.00;99819.06;5172588;27;20045;-69
2022/10/07 10:13:29;;;;;;;12.65;3.60;;;;;;;19.92;100.00;99846.28;5172583;27;20493;-69
2022/10/07 10:15:55;;;;;;;8.98;1.90;;;;;;;20.36;100.00;99846.63;5172479;27;20050;-69
2022/10/07 10:18:36;;;;;;;13.32;3.08;;;;;;;20.44;100.00;99850.91;5172492;27;20055;-69
2022/10/07 10:21:21;;;;;;;7.35;2.08;;;;;;;19.93;100.00;99855.44;5172278;27;20511;-69
2022/10/07 10:23:48;;;;;;;;;;;;;;;19.41;100.00;99825.63;5172781;27;20504;-69
2022/10/07 10:26:36;;;;;;;6.38;1.95;;;;;;;19.56;100.00;99848.56;5172348;27;19922;-69
2022/10/07 10:29:16;;;;;;;9.23;1.60;;;;;;;19.28;100.00;99818.97;5172061;27;20461;-69
2022/10/07 10:32:06;;;;;;;10.07;2.17;;;;;;;19.43;100.00;99773.19;5172206;27;20050;-69
2022/10/07 10:34:42;;;;;;;8.35;2.03;;;;;;;18.50;100.00;99772.97;5172599;27;20610;-68
2022/10/07 10:37:17;;;;;;;14.80;2.30;;;;;;;18.38;100.00;99751.19;5172002;27;20417;-69
2022/10/07 10:40:02;;;;;;;7.05;1.58;;;;;;;18.07;100.00;99742.59;5172081;27;20557;-68
2022/10/07 10:42:40;;;;;;;13.55;2.72;;;;;;;18.06;100.00;99666.91;5171885;27;20050;-68
2022/10/07 10:45:15;;;;;;;9.65;2.00;;;;;;;18.10;100.00;99706.53;5171966;27;20053;-68
2022/10/07 10:47:59;;;;;;;8.10;2.03;;;;;;;18.49;100.00;99718.63;5171843;27;20051;-68
2022/10/07 10:50:29;;;;;;;;;;;;;;;18.73;100.00;99681.63;5172529;27;20433;-68
2022/10/07 10:53:06;;;;;;;6.65;2.67;;;;;;;18.92;100.00;99688.59;5171842;27;19967;-68
2022/10/07 10:56:03;;;;;;;6.85;1.60;;;;;;;19.29;100.00;99720.47;5172213;27;20503;-69
2022/10/07 10:58:42;;;;;;;10.27;2.08;;;;;;;19.52;100.00;99731.75;5172205;27;20042;-68
2022/10/07 11:01:19;;;;;;;6.45;1.88;;;;;;;19.52;100.00;99733.75;5171950;27;20042;-68
2022/10/07 11:04:24;;;;;;;6.05;1.88;;;;;;;19.55;100.00;99732.16;5171696;27;20050;-68
2022/10/07 11:06:57;;;;;;;10.30;2.10;;;;;;;19.75;100.00;99733.94;5168093;27;20051;-66
2022/10/07 11:09:31;;;;;;;7.63;2.57;;;;;;;19.27;100.00;99704.19;5171581;27;20046;-62
2022/10/07 11:12:03;;;;;;;5.28;1.70;;;;;;;18.91;100.00;99675.13;5171744;27;20512;-66
2022/10/07 11:14:35;;;;;;;6.88;1.80;;;;;;;18.48;100.00;99701.16;5171211;27;20476;-66
2022/10/07 11:17:05;;;;;;;6.55;1.95;;;;;;;18.11;100.00;99662.91;5171310;27;20062;-66
2022/10/07 11:19:35;;;;;;;11.90;1.55;;;;;;;17.59;100.00;99591.41;5174036;27;20137;-66
2022/10/07 11:22:02;;;;;;;8.13;1.85;;;;;;;17.47;100.00;99602.13;5175366;27;20046;-66
2022/10/07 11:24:33;;;;;;;8.02;1.27;;;;;;;17.49;100.00;99594.97;5175145;27;20050;-68
2022/10/07 11:27:07;;;;;;;7.28;1.80;;;;;;;17.03;100.00;99554.34;5174997;27;20049;-69
2022/10/07 11:29:42;;;;;;;8.55;1.42;;;;;;;16.92;100.00;99523.88;5175378;27;20050;-66
2022/10/07 11:32:15;;;;;;;7.35;1.95;;;;;;;17.04;100.00;99494.97;5175064;27;20073;-66
2022/10/07 11:34:47;;;;;;;5.63;1.63;;;;;;;16.78;100.00;99451.16;5175334;27;20057;-63
2022/10/07 11:37:19;;;;;;;9.30;2.80;;;;;;;16.54;100.00;99464.63;5175209;27;20050;-67